createdAt,value
2022-10-10T00:02:19.188Z,100.00
2022-10-10T00:05:08.722Z,100.00
2022-10-10T00:07:57.477Z,100.00
2022-10-10T00:10:45.548Z,100.00
2022-10-10T00:13:34.041Z,100.00
2022-10-10T00:16:22.361Z,100.00
2022-10-10T00:19:10.895Z,100.00
2022-10-10T00:22:00.397Z,100.00
2022-10-10T00:24:49.005Z,100.00
2022-10-10T00:27:38.607Z,100.00
2022-10-10T00:30:27.084Z,100.00
2022-10-10T00:33:15.551Z,100.00
2022-10-10T00:36:03.784Z,100.00
2022-10-10T00:38:52.059Z,100.00
2022-10-10T00:41:40.346Z,100.00
2022-10-10T00:44:28.784Z,100.00
2022-10-10T00:47:17.194Z,100.00
2022-10-10T00:50:07.934Z,100.00
2022-10-10T00:52:56.575Z,100.00
2022-10-10T00:55:45.094Z,100.00
2022-10-10T00:58:36.132Z,100.00
2022-10-10T01:01:25.037Z,100.00
2022-10-10T01:04:31.873Z,100.00
2022-10-10T01:07:22.947Z,100.00
2022-10-10T01:10:15.329Z,100.00
2022-10-10T01:13:12.479Z,100.00
2022-10-10T01:16:07.796Z,100.00
2022-10-10T01:19:07.437Z,100.00
2022-10-10T01:22:11.229Z,100.00
2022-10-10T01:25:14.364Z,100.00
2022-10-10T01:28:10.344Z,100.00
2022-10-10T01:30:59.979Z,100.00
2022-10-10T01:33:54.955Z,100.00
2022-10-10T01:36:52.557Z,100.00
2022-10-10T01:39:45.705Z,100.00
2022-10-10T01:42:42.301Z,100.00
2022-10-10T01:45:31.447Z,100.00
2022-10-10T01:48:23.997Z,100.00
2022-10-10T01:51:29.881Z,100.00
2022-10-10T01:54:31.158Z,100.00
2022-10-10T01:57:26.528Z,100.00
2022-10-10T02:00:17.449Z,100.00
2022-10-10T02:03:12.746Z,100.00
2022-10-10T02:06:06.827Z,100.00
2022-10-10T02:09:02.429Z,100.00
2022-10-10T02:11:51.416Z,100.00
2022-10-10T02:14:44.429Z,100.00
2022-10-10T02:17:36.646Z,100.00
2022-10-10T02:20:25.147Z,100.00
2022-10-10T02:23:17.915Z,100.00
2022-10-10T02:26:06.389Z,100.00
2022-10-10T02:28:58.106Z,100.00
2022-10-10T02:31:56.758Z,100.00
2022-10-10T02:34:49.662Z,100.00
2022-10-10T02:37:40.683Z,100.00
2022-10-10T02:40:31.841Z,100.00
2022-10-10T02:43:20.990Z,100.00
2022-10-10T02:46:12.873Z,100.00
2022-10-10T02:49:02.675Z,100.00
2022-10-10T02:51:51.091Z,100.00
2022-10-10T02:54:38.903Z,100.00
2022-10-10T02:57:27.237Z,100.00
2022-10-10T03:00:16.505Z,100.00
2022-10-10T03:03:04.387Z,100.00
2022-10-10T03:05:52.885Z,100.00
2022-10-10T03:08:41.543Z,100.00
2022-10-10T03:11:30.194Z,100.00
2022-10-10T03:14:18.641Z,100.00
2022-10-10T03:17:06.467Z,100.00
2022-10-10T03:19:54.874Z,100.00
2022-10-10T03:22:43.426Z,100.00
2022-10-10T03:25:31.322Z,100.00
2022-10-10T03:28:19.349Z,100.00
2022-10-10T03:31:07.977Z,100.00
2022-10-10T03:33:56.151Z,100.00
2022-10-10T03:36:44.288Z,100.00
2022-10-10T03:39:32.905Z,100.00
2022-10-10T03:42:20.844Z,100.00
2022-10-10T03:45:10.429Z,100.00
2022-10-10T03:47:58.600Z,100.00
2022-10-10T03:50:46.672Z,100.00
2022-10-10T03:53:34.756Z,100.00
2022-10-10T03:56:23.001Z,100.00
2022-10-10T03:59:11.015Z,100.00
2022-10-10T04:01:59.215Z,100.00
2022-10-10T04:04:47.369Z,100.00
2022-10-10T04:07:35.385Z,100.00
2022-10-10T04:10:23.855Z,100.00
2022-10-10T04:13:11.887Z,100.00
2022-10-10T04:15:59.998Z,100.00
2022-10-10T04:18:52.575Z,100.00
2022-10-10T04:21:47.929Z,100.00
2022-10-10T04:24:38.353Z,100.00
2022-10-10T04:28:00.879Z,100.00
2022-10-10T04:53:01.583Z,100.00
2022-10-10T04:56:39.581Z,100.00
2022-10-10T05:14:26.478Z,100.00
2022-10-10T05:42:58.739Z,100.00
2022-10-10T05:50:44.655Z,100.00
2022-10-10T05:58:13.869Z,100.00
2022-10-10T06:01:10.761Z,100.00
2022-10-10T06:04:01.062Z,100.00
2022-10-10T06:06:52.653Z,100.00
2022-10-10T06:23:57.965Z,100.00
2022-10-10T06:26:52.361Z,100.00
2022-10-10T06:29:47.433Z,100.00
2022-10-10T06:32:57.250Z,100.00
2022-10-10T06:50:25.669Z,100.00
2022-10-10T06:57:47.674Z,100.00
2022-10-10T07:00:53.731Z,100.00
2022-10-10T07:03:49.398Z,100.00
2022-10-10T07:06:54.631Z,100.00
2022-10-10T07:13:54.218Z,100.00
2022-10-10T07:24:32.358Z,100.00
2022-10-10T07:27:22.171Z,100.00
2022-10-10T07:30:20.527Z,100.00
2022-10-10T07:33:23.581Z,100.00
2022-10-10T07:36:12.312Z,100.00
2022-10-10T07:39:02.137Z,100.00
2022-10-10T07:41:57.245Z,100.00
2022-10-10T07:45:00.739Z,100.00
2022-10-10T07:47:51.177Z,100.00
2022-10-10T07:50:43.035Z,100.00
2022-10-10T07:53:34.333Z,100.00
2022-10-10T07:56:24.686Z,100.00
2022-10-10T07:59:15.536Z,100.00
2022-10-10T08:02:04.993Z,100.00
2022-10-10T08:04:53.329Z,100.00
2022-10-10T08:07:43.192Z,100.00
2022-10-10T08:10:34.649Z,100.00
2022-10-10T08:13:29.720Z,100.00
2022-10-10T08:16:19.794Z,100.00
2022-10-10T08:19:07.679Z,100.00
2022-10-10T08:21:56.077Z,100.00
2022-10-10T08:24:47.376Z,99.88
2022-10-10T08:27:35.744Z,99.04
2022-10-10T08:41:00.962Z,97.19
2022-10-10T08:49:35.565Z,96.47
2022-10-10T09:14:08.852Z,95.38
2022-10-10T09:24:33.711Z,94.72
2022-10-10T10:48:19.053Z,80.81
2022-10-10T10:51:31.665Z,82.59
2022-10-10T10:54:50.474Z,80.98
2022-10-10T10:58:48.816Z,79.85
2022-10-10T11:01:55.070Z,81.36
2022-10-10T11:05:19.980Z,80.17
2022-10-10T11:46:54.189Z,73.76
2022-10-10T12:38:24.691Z,70.33
2022-10-10T12:41:15.843Z,68.99
2022-10-10T12:44:23.031Z,69.46
2022-10-10T12:47:59.886Z,68.33
2022-10-10T12:50:54.397Z,68.12
2022-10-10T12:53:52.396Z,68.31
2022-10-10T12:56:44.918Z,69.27
2022-10-10T12:59:37.522Z,68.78
2022-10-10T13:02:32.589Z,67.56
2022-10-10T13:05:27.630Z,66.96
2022-10-10T13:08:25.291Z,67.15
2022-10-10T13:11:18.094Z,66.88
2022-10-10T13:14:11.213Z,67.01
2022-10-10T13:17:01.957Z,66.76
2022-10-10T13:19:52.547Z,65.91
2022-10-10T13:22:44.054Z,65.90
2022-10-10T13:25:40.024Z,66.31
2022-10-10T13:28:29.707Z,65.45
2022-10-10T13:31:21.220Z,65.57
2022-10-10T13:34:14.473Z,66.07
2022-10-10T13:37:08.605Z,65.90
2022-10-10T13:40:00.449Z,66.60
2022-10-10T13:42:51.318Z,66.29
2022-10-10T13:45:47.173Z,66.36
2022-10-10T13:48:42.560Z,65.87
2022-10-10T13:51:46.650Z,66.25
2022-10-10T13:54:47.413Z,66.53
2022-10-10T13:57:41.640Z,66.74
2022-10-10T14:00:33.558Z,66.88
2022-10-10T14:03:25.347Z,67.39
2022-10-10T14:06:20.577Z,66.36
2022-10-10T14:09:19.442Z,65.95
2022-10-10T14:12:18.852Z,66.06
2022-10-10T14:15:36.206Z,66.62
2022-10-10T14:18:26.324Z,66.62
2022-10-10T14:21:30.242Z,66.95
2022-10-10T14:24:21.006Z,66.54
2022-10-10T14:27:21.400Z,66.70
2022-10-10T14:30:17.151Z,67.05
2022-10-10T14:33:11.855Z,66.94
2022-10-10T14:36:01.687Z,67.37
2022-10-10T14:38:50.482Z,66.72
2022-10-10T14:41:38.930Z,67.98
2022-10-10T14:44:28.325Z,67.68
2022-10-10T14:47:19.776Z,67.66
2022-10-10T14:50:17.432Z,68.17
2022-10-10T14:53:06.857Z,68.84
2022-10-10T14:55:58.274Z,68.79
2022-10-10T14:58:49.038Z,68.97
2022-10-10T15:01:37.830Z,69.88
2022-10-10T15:04:26.791Z,70.31
2022-10-10T15:07:16.590Z,71.32
2022-10-10T15:13:17.833Z,72.21
2022-10-10T15:16:08.234Z,72.08
2022-10-10T15:18:57.334Z,72.22
2022-10-10T15:21:48.952Z,72.93
2022-10-10T15:24:37.977Z,73.08
2022-10-10T15:27:27.551Z,73.74
2022-10-10T15:30:16.513Z,74.08
2022-10-10T15:33:05.266Z,73.82
2022-10-10T15:36:08.899Z,74.51
2022-10-10T15:39:00.390Z,74.97
2022-10-10T15:41:49.968Z,76.15
2022-10-10T15:44:43.872Z,76.09
2022-10-10T15:47:34.644Z,76.55
2022-10-10T15:50:27.095Z,77.12
2022-10-10T15:53:33.246Z,78.24
2022-10-10T15:56:25.510Z,78.45
2022-10-10T15:59:15.059Z,78.43
2022-10-10T16:02:04.225Z,79.59
2022-10-10T16:04:54.419Z,79.37
2022-10-10T16:07:48.004Z,80.48
2022-10-10T16:10:42.636Z,80.48
2022-10-10T16:13:34.040Z,81.17
2022-10-10T16:16:24.790Z,82.04
2022-10-10T16:19:16.603Z,82.31
2022-10-10T16:22:06.627Z,83.00
2022-10-10T16:28:06.480Z,84.54
2022-10-10T16:30:56.335Z,84.06
2022-10-10T16:33:48.246Z,85.24
2022-10-10T16:36:38.029Z,85.35
2022-10-10T16:39:27.190Z,87.03
2022-10-10T16:42:18.852Z,87.61
2022-10-10T16:45:11.257Z,87.79
2022-10-10T16:48:00.889Z,88.00
2022-10-10T16:50:51.834Z,88.63
2022-10-10T16:53:41.412Z,89.78
2022-10-10T16:56:31.192Z,90.27
2022-10-10T16:59:19.942Z,90.35
2022-10-10T17:02:13.472Z,91.19
2022-10-10T17:05:04.416Z,90.48
2022-10-10T17:07:58.541Z,92.22
2022-10-10T17:10:48.270Z,91.81
2022-10-10T17:13:37.442Z,92.53
2022-10-10T17:19:38.958Z,93.81
2022-10-10T17:22:27.498Z,93.83
2022-10-10T17:25:16.628Z,94.66
2022-10-10T17:28:06.645Z,94.83
2022-10-10T17:30:59.883Z,95.06
2022-10-10T17:33:53.997Z,95.49
2022-10-10T17:36:43.943Z,95.81
2022-10-10T17:39:33.509Z,96.60
2022-10-10T17:42:22.773Z,97.28
2022-10-10T17:45:16.414Z,97.48
2022-10-10T17:48:08.945Z,97.90
2022-10-10T17:50:58.550Z,97.69
2022-10-10T17:53:48.142Z,98.24
2022-10-10T17:56:40.150Z,98.54
2022-10-10T17:59:29.338Z,99.08
2022-10-10T18:02:19.693Z,99.08
2022-10-10T18:05:10.216Z,99.53
2022-10-10T18:07:59.136Z,99.86
2022-10-10T18:10:47.839Z,100.00
2022-10-10T18:13:38.078Z,100.00
2022-10-10T18:16:28.763Z,100.00
2022-10-10T18:19:18.606Z,100.00
2022-10-10T18:22:08.801Z,100.00
2022-10-10T18:24:57.758Z,100.00
2022-10-10T18:27:46.926Z,100.00
2022-10-10T18:30:35.678Z,100.00
2022-10-10T18:33:24.635Z,100.00
2022-10-10T18:36:15.897Z,100.00
2022-10-10T18:39:07.703Z,100.00
2022-10-10T18:41:57.659Z,100.00
2022-10-10T18:44:48.080Z,100.00
2022-10-10T18:47:37.709Z,100.00
2022-10-10T18:50:26.993Z,100.00
2022-10-10T18:53:33.363Z,100.00
2022-10-10T18:56:24.895Z,100.00
2022-10-10T18:59:15.984Z,100.00
2022-10-10T19:02:05.574Z,100.00
2022-10-10T19:04:54.931Z,100.00
2022-10-10T19:07:45.009Z,100.00
2022-10-10T19:10:33.472Z,100.00
2022-10-10T19:13:22.229Z,100.00
2022-10-10T19:16:11.689Z,100.00
2022-10-10T19:19:02.024Z,100.00
2022-10-10T19:21:55.592Z,100.00
2022-10-10T19:24:45.234Z,100.00
2022-10-10T19:27:42.182Z,100.00
2022-10-10T19:30:31.389Z,100.00
2022-10-10T19:33:20.303Z,100.00
2022-10-10T19:36:13.191Z,100.00
2022-10-10T19:39:01.703Z,100.00
2022-10-10T19:41:50.666Z,100.00
2022-10-10T19:44:40.033Z,100.00
2022-10-10T19:47:29.019Z,100.00
2022-10-10T19:50:18.169Z,100.00
2022-10-10T19:53:08.024Z,100.00
2022-10-10T19:56:02.323Z,100.00
2022-10-10T19:58:51.366Z,100.00
2022-10-10T20:01:40.585Z,100.00
2022-10-10T20:04:29.713Z,100.00
2022-10-10T20:07:19.068Z,100.00
2022-10-10T20:10:11.705Z,100.00
2022-10-10T20:13:00.094Z,100.00
2022-10-10T20:15:50.652Z,100.00
2022-10-10T20:18:41.087Z,100.00
2022-10-10T20:21:32.283Z,100.00
2022-10-10T20:24:22.379Z,100.00
2022-10-10T20:27:12.655Z,100.00
2022-10-10T20:30:01.213Z,100.00
2022-10-10T20:32:50.983Z,100.00
2022-10-10T20:35:39.946Z,100.00
2022-10-10T20:38:29.361Z,100.00
2022-10-10T20:41:31.617Z,100.00
2022-10-10T20:44:21.179Z,100.00
2022-10-10T20:47:11.578Z,100.00
2022-10-10T20:50:00.937Z,100.00
2022-10-10T20:52:50.140Z,100.00
2022-10-10T20:55:38.437Z,100.00
2022-10-10T20:58:27.510Z,100.00
2022-10-10T21:01:19.263Z,100.00
2022-10-10T21:04:13.738Z,100.00
2022-10-10T21:07:02.666Z,100.00
2022-10-10T21:09:51.655Z,100.00
2022-10-10T21:12:40.795Z,100.00
2022-10-10T21:15:47.159Z,100.00
2022-10-10T21:18:36.526Z,100.00
2022-10-10T21:21:27.115Z,100.00
2022-10-10T21:24:18.133Z,100.00
2022-10-10T21:27:06.732Z,100.00
2022-10-10T21:29:55.847Z,100.00
2022-10-10T21:32:44.605Z,100.00
2022-10-10T21:35:35.406Z,100.00
2022-10-10T21:38:27.030Z,100.00
2022-10-10T21:41:19.050Z,100.00
2022-10-10T21:44:08.842Z,100.00
2022-10-10T21:46:57.934Z,100.00
2022-10-10T21:49:46.965Z,100.00
2022-10-10T21:52:36.054Z,100.00
2022-10-10T21:55:25.494Z,100.00
2022-10-10T21:58:14.456Z,100.00
2022-10-10T22:01:10.169Z,100.00
2022-10-10T22:04:00.157Z,100.00
2022-10-10T22:06:49.734Z,100.00
2022-10-10T22:09:38.897Z,100.00
2022-10-10T22:12:28.268Z,100.00
2022-10-10T22:15:17.866Z,100.00
2022-10-10T22:18:07.003Z,100.00
2022-10-10T22:20:55.971Z,100.00
2022-10-10T22:23:51.066Z,100.00
2022-10-10T22:26:41.506Z,100.00
2022-10-10T22:29:50.914Z,100.00
2022-10-10T22:32:40.057Z,100.00
2022-10-10T22:35:29.451Z,100.00
2022-10-10T22:38:17.720Z,100.00
2022-10-10T22:41:06.537Z,100.00
2022-10-10T22:43:55.698Z,100.00
2022-10-10T22:46:44.457Z,100.00
2022-10-10T22:49:37.247Z,100.00
2022-10-10T22:52:26.471Z,100.00
2022-10-10T22:55:18.625Z,100.00
2022-10-10T22:58:08.626Z,100.00
2022-10-10T23:00:56.797Z,100.00
2022-10-10T23:03:46.404Z,100.00
2022-10-10T23:06:35.161Z,100.00
2022-10-10T23:09:24.532Z,100.00
2022-10-10T23:12:14.315Z,100.00
2022-10-10T23:15:04.292Z,100.00
2022-10-10T23:17:52.791Z,100.00
2022-10-10T23:20:41.668Z,100.00
2022-10-10T23:23:30.420Z,100.00
2022-10-10T23:26:20.761Z,100.00
2022-10-10T23:29:11.543Z,100.00
2022-10-10T23:32:01.569Z,100.00
2022-10-10T23:34:50.288Z,100.00
2022-10-10T23:37:39.085Z,100.00
2022-10-10T23:40:27.999Z,100.00
2022-10-10T23:43:16.959Z,100.00
2022-10-10T23:46:06.276Z,100.00
2022-10-10T23:48:55.499Z,100.00
2022-10-10T23:51:45.068Z,100.00
2022-10-10T23:54:33.835Z,100.00
2022-10-10T23:57:22.988Z,100.00
